Huvudsida
METAR-TAF:

METAR-TAF

Flygplatser :

Dammam, Saudiarabien

latitud: 26-28N, longitud: 049-47E, höjd: 22 m

Aktuellt väderrapport

Denna rapport gjordes för 53 minuter sedan, klockan 22:00 UTC
Vind 5 kt från syd
Temperatur 31°C
Fuktighet 63%
Tryck 1001 hPa
Sikt: 8000 m

METAR: OEDF 252200Z 19005KT 8000 NSC 31/23 Q1001 NOSIG

Tid: 01:53 (22:53 UTC)

Väderprognos

Denna rapport gjordes för 8 timmar och 23 minuter sedan, klockan 14:30 UTC
Prognos gäller från 25 kl. 18 UTC till 26 kl. 24 UTC
Vind 3 kt varierande vindriktning
Sikt: 8000 m
Temporärt
från 26 kl. 01 UTC till 26 kl. 05 UTC
Sikt: 3000 m
fuktdis
Blir
från 26 kl. 07 UTC till 26 kl. 09 UTC
Vind 8 kt från ost

TAF: OEDF 251430Z 2518/2624 VRB03KT 8000 NSC TEMPO 2601/2605 3000 BR BECMG 2607/2609 09008KT

Aktuella väderrapporter och prognoser från 4000 flygplatser (METAR- och TAF-rapporter).

De tillgängliga stationerna syns som gula och röda prickar på kartan.

För musen över prickarna för att se namnen på stationerna.

Klicka sedan för att få väderrapporter och prognoser.

För att ändra kartan: Klicka på de gröna knapparna med ett svart kors på för att zooma in; den gröna knappen med ett streck på för att zooma ut; eller på de gröna pilarna för angränsande kartor.


METAR-TAF: